< < Back
Terminal Aerodrome Forecast


Current Version              Previous Versions:   1  2  3  4  5  6  7  8  9  

Terminal Aerodrome Forecast

848
FTUS42 KCAE 290230 AAA
TAFCAE
TAF AMD
KCAE 290230Z 2902/2924 08005KT P6SM BKN150
     FM291000 VRB03KT P6SM BKN015
     FM291500 04007KT P6SM BKN035
     FM292100 05005KT P6SM SCT060 BKN250=



Latest METAR

029
SAUS80 KWBC 290800 CCA
MTRCAE
METAR KCAE 290756Z 02004KT 10SM FEW130 27/21 A3008 RMK AO2 SLP182
T02670211


USA.gov is the U.S. government's official web portal to all federal, state and local government web resources and services.